Time;durP1;ratioP1;P1;durP2;ratioP2;P2;SDS_P1;SDS_P2;PMS_P1;PMS_P2;Temp;Humidity;BMP_temperature;BMP_pressure;BME280_temperature;BME280_humidity;BME280_pressure;Samples;Min_cycle;Max_cycle;Signal;HPM_P1;HPM_P2
2022/07/15 00:01:15;;;;;;;0.65;0.35;;;15.30;61.20;15.30;100804.00;;;;5014905;27;88524;-63
2022/07/15 00:03:41;;;;;;;0.50;0.50;;;15.20;61.50;15.30;100809.00;;;;5014055;27;118096;-63
2022/07/15 00:06:06;;;;;;;0.50;0.47;;;15.20;61.70;15.20;100811.00;;;;5014008;27;117171;-62
2022/07/15 00:08:32;;;;;;;1.55;0.68;;;15.10;61.80;15.20;100803.00;;;;5014645;27;109088;-61
2022/07/15 00:10:58;;;;;;;1.05;0.30;;;15.10;62.00;15.10;100807.00;;;;5017385;27;108833;-62
2022/07/15 00:13:25;;;;;;;0.30;0.30;;;15.10;62.20;15.10;100796.00;;;;4996652;27;90648;-61
2022/07/15 00:15:50;;;;;;;1.02;0.35;;;15.00;62.30;15.00;100797.00;;;;5018091;27;87845;-61
2022/07/15 00:18:16;;;;;;;0.22;0.22;;;15.00;62.50;15.00;100808.00;;;;5018004;27;88648;-63
2022/07/15 00:20:42;;;;;;;0.38;0.22;;;14.90;62.90;14.90;100802.00;;;;5018656;27;98045;-62
2022/07/15 00:23:08;;;;;;;0.50;0.50;;;14.90;63.20;14.90;100801.00;;;;5017050;27;118560;-62
2022/07/15 00:25:34;;;;;;;0.95;0.35;;;14.80;63.60;14.80;100798.00;;;;5018534;27;103864;-62
2022/07/15 00:28:05;;;;;;;0.40;0.40;;;14.70;63.60;14.80;100801.00;;;;5017651;27;110678;-62
2022/07/15 00:30:34;;;;;;;0.22;0.20;;;14.80;64.70;14.80;100792.00;;;;5018734;27;88092;-62
2022/07/15 00:33:00;;;;;;;0.45;0.20;;;14.70;64.00;14.70;100793.00;;;;5015983;27;89031;-63
2022/07/15 00:35:26;;;;;;;0.55;0.55;;;14.70;64.40;14.70;100793.00;;;;5018207;27;88646;-62
2022/07/15 00:37:52;;;;;;;0.93;0.60;;;14.60;64.40;14.60;100791.00;;;;5017014;27;87793;-63
2022/07/15 00:40:18;;;;;;;0.20;0.20;;;14.60;64.70;14.50;100794.00;;;;5017638;27;109083;-63
2022/07/15 00:42:44;;;;;;;0.20;0.20;;;14.50;64.80;14.50;100795.00;;;;5017593;27;90261;-62
2022/07/15 00:45:21;;;;;;;0.90;0.57;;;14.60;65.10;14.40;100798.00;;;;5018268;27;89056;-63
2022/07/15 00:47:53;;;;;;;0.40;0.32;;;14.40;65.50;14.40;100789.00;;;;5017787;27;87781;-63
2022/07/15 00:50:20;;;;;;;0.57;0.20;;;14.40;65.70;14.30;100797.00;;;;5000147;27;87868;-63
2022/07/15 00:52:54;;;;;;;0.35;0.35;;;14.30;65.80;14.30;100795.00;;;;5017209;27;105950;-63
2022/07/15 00:55:22;;;;;;;0.63;0.38;;;14.20;66.30;14.20;100795.00;;;;5018513;27;88009;-62
2022/07/15 00:57:52;;;;;;;0.77;0.40;;;14.20;66.40;14.10;100797.00;;;;5017129;27;87966;-63
2022/07/15 01:00:17;;;;;;;0.43;0.27;;;14.10;66.50;14.10;100795.00;;;;5018317;27;86926;-62
2022/07/15 01:02:50;;;;;;;0.20;0.20;;;14.00;67.30;14.00;100790.00;;;;5016586;27;117075;-62
2022/07/15 01:05:20;;;;;;;0.57;0.40;;;14.00;67.70;13.90;100797.00;;;;5018138;27;88726;-63
2022/07/15 01:07:46;;;;;;;0.37;0.37;;;13.90;68.00;13.90;100792.00;;;;5017437;27;88578;-63
2022/07/15 01:10:12;;;;;;;0.40;0.40;;;13.80;68.70;13.80;100801.00;;;;5017828;27;87774;-62
2022/07/15 01:12:40;;;;;;;2.03;0.60;;;13.80;68.30;13.70;100790.00;;;;5016611;27;108757;-63
2022/07/15 01:15:08;;;;;;;0.60;0.43;;;13.70;68.40;13.70;100792.00;;;;5017437;27;87800;-62
2022/07/15 01:17:34;;;;;;;1.03;0.50;;;13.60;68.70;13.60;100798.00;;;;5017571;27;87599;-62
2022/07/15 01:19:59;;;;;;;0.20;0.20;;;13.60;69.40;13.50;100795.00;;;;5017492;27;93133;-61
2022/07/15 01:22:25;;;;;;;0.20;0.20;;;13.50;69.40;13.40;100790.00;;;;5016123;27;116658;-61
2022/07/15 01:24:52;;;;;;;0.40;0.40;;;13.40;69.80;13.40;100789.00;;;;5018465;27;88608;-61
2022/07/15 01:27:18;;;;;;;0.53;0.53;;;13.40;70.10;13.30;100786.00;;;;5016924;27;97165;-61
2022/07/15 01:29:44;;;;;;;0.73;0.30;;;13.30;70.50;13.20;100795.00;;;;5017963;27;87859;-61
2022/07/15 01:32:09;;;;;;;0.47;0.30;;;13.20;70.50;13.20;100794.00;;;;5015611;27;116826;-61
2022/07/15 01:34:35;;;;;;;0.30;0.20;;;13.20;70.90;13.10;100795.00;;;;5016409;27;117687;-61
2022/07/15 01:37:01;;;;;;;0.17;0.17;;;13.10;71.20;13.10;100794.00;;;;5016200;27;109013;-62
2022/07/15 01:39:26;;;;;;;0.83;0.47;;;13.10;71.70;13.00;100805.00;;;;5017714;27;87908;-63
2022/07/15 01:41:52;;;;;;;0.40;0.40;;;13.00;72.00;12.90;100801.00;;;;5016090;27;117262;-62
2022/07/15 01:44:18;;;;;;;0.30;0.30;;;12.90;72.30;12.90;100805.00;;;;5015825;27;117854;-61
2022/07/15 01:46:44;;;;;;;0.27;0.27;;;12.90;72.90;12.90;100816.00;;;;5017343;27;87693;-62
2022/07/15 01:49:21;;;;;;;0.30;0.30;;;12.80;73.40;12.80;100810.00;;;;5016776;27;108883;-63
2022/07/15 01:51:48;;;;;;;0.57;0.30;;;12.80;73.60;12.80;100816.00;;;;5016599;27;89113;-62
2022/07/15 01:54:13;;;;;;;0.50;0.47;;;12.80;73.90;12.70;100823.00;;;;5017204;27;104818;-62
2022/07/15 01:56:39;;;;;;;0.47;0.47;;;12.70;74.40;12.70;100818.00;;;;5013716;27;111016;-62
2022/07/15 01:59:05;;;;;;;0.13;0.10;;;12.70;74.90;12.70;100817.00;;;;5016619;27;90730;-62
2022/07/15 02:01:31;;;;;;;0.33;0.33;;;12.60;75.20;12.60;100821.00;;;;5016840;27;88619;-62
2022/07/15 02:03:56;;;;;;;1.30;0.20;;;12.60;75.60;12.60;100827.00;;;;5016345;27;115759;-62
2022/07/15 02:06:22;;;;;;;1.43;0.30;;;12.60;76.00;12.60;100834.00;;;;5015763;27;110149;-62
2022/07/15 02:08:48;;;;;;;0.40;0.20;;;12.60;76.20;12.60;100829.00;;;;5017990;27;87948;-63
2022/07/15 02:11:14;;;;;;;0.30;0.30;;;12.50;76.40;12.50;100823.00;;;;5016667;27;88083;-62
2022/07/15 02:13:40;;;;;;;0.40;0.40;;;12.50;76.80;12.50;100823.00;;;;5017100;27;89973;-61
2022/07/15 02:16:06;;;;;;;0.27;0.27;;;12.50;77.20;12.50;100823.00;;;;5016428;27;99978;-62
2022/07/15 02:18:32;;;;;;;0.77;0.20;;;12.40;77.40;12.40;100835.00;;;;5016574;27;87684;-62
2022/07/15 02:20:58;;;;;;;0.40;0.40;;;12.40;77.80;12.40;100826.00;;;;5015948;27;89097;-62
2022/07/15 02:23:24;;;;;;;0.20;0.20;;;12.40;78.00;12.40;100831.00;;;;5016398;27;96191;-62
2022/07/15 02:25:49;;;;;;;18.20;0.63;;;12.40;78.50;12.40;100839.00;;;;5017104;27;88015;-61
2022/07/15 02:28:16;;;;;;;0.20;0.13;;;12.30;78.70;12.30;100830.00;;;;5016093;27;108807;-62
2022/07/15 02:30:43;;;;;;;0.23;0.23;;;12.30;79.10;12.30;100830.00;;;;5015811;27;118103;-62
2022/07/15 02:33:10;;;;;;;0.40;0.33;;;12.20;79.40;12.30;100824.00;;;;5015378;27;96403;-62
2022/07/15 02:35:37;;;;;;;0.37;0.37;;;12.30;79.80;12.20;100833.00;;;;5016248;27;88082;-62
2022/07/15 02:38:03;;;;;;;2.53;0.77;;;12.20;80.10;12.20;100837.00;;;;5017277;27;87166;-61
2022/07/15 02:40:30;;;;;;;0.77;0.30;;;12.20;80.40;12.20;100847.00;;;;5014936;27;91086;-61
2022/07/15 02:42:59;;;;;;;0.97;0.50;;;12.20;80.90;12.20;100837.00;;;;5016374;27;87902;-61
2022/07/15 02:45:28;;;;;;;0.30;0.30;;;12.20;81.40;12.10;100845.00;;;;5015602;27;97776;-61
2022/07/15 02:47:54;;;;;;;0.20;0.20;;;12.10;81.60;12.10;100833.00;;;;5016603;27;87804;-62
2022/07/15 02:50:21;;;;;;;1.93;0.80;;;12.10;82.10;12.10;100835.00;;;;5016509;27;93209;-61
2022/07/15 02:52:47;;;;;;;1.73;0.60;;;12.10;82.50;12.10;100845.00;;;;5015625;27;100233;-61
2022/07/15 02:55:13;;;;;;;0.30;0.20;;;12.00;82.90;12.00;100844.00;;;;5016369;27;100415;-61
2022/07/15 02:57:40;;;;;;;1.83;0.77;;;12.00;83.50;12.00;100843.00;;;;5015954;27;87999;-61
2022/07/15 03:00:11;;;;;;;0.33;0.30;;;12.00;84.10;12.00;100849.00;;;;5016130;27;87911;-62
2022/07/15 03:02:37;;;;;;;0.40;0.37;;;12.00;84.70;11.90;100854.00;;;;4997377;27;88315;-62
2022/07/15 03:05:04;;;;;;;0.67;0.50;;;12.00;85.20;11.90;100844.00;;;;5015928;27;87969;-62
2022/07/15 03:07:29;;;;;;;1.83;0.40;;;11.90;85.60;11.90;100844.00;;;;5015158;27;91415;-62
2022/07/15 03:09:55;;;;;;;0.40;0.33;;;11.90;86.00;11.80;100856.00;;;;5014557;27;118246;-62
2022/07/15 03:12:21;;;;;;;3.90;0.60;;;11.80;86.20;11.80;100854.00;;;;5014551;27;117919;-62
2022/07/15 03:14:47;;;;;;;0.23;0.20;;;11.80;86.70;11.80;100854.00;;;;5015363;27;89611;-62
2022/07/15 03:17:13;;;;;;;1.10;0.63;;;11.80;87.30;11.80;100860.00;;;;5015058;27;103264;-63
2022/07/15 03:19:39;;;;;;;2.93;0.80;;;11.80;88.00;11.70;100859.00;;;;5015719;27;89157;-62
2022/07/15 03:22:06;;;;;;;0.57;0.50;;;11.70;88.50;11.70;100866.00;;;;5016345;27;89433;-62
2022/07/15 03:24:31;;;;;;;0.20;0.20;;;11.70;89.00;11.70;100867.00;;;;5019089;27;90055;-62
2022/07/15 03:26:57;;;;;;;1.30;0.60;;;11.60;89.90;11.70;100868.00;;;;5014622;27;95460;-62
2022/07/15 03:29:23;;;;;;;0.50;0.50;;;11.70;90.20;11.70;100868.00;;;;5015213;27;99126;-62
2022/07/15 03:31:49;;;;;;;0.43;0.30;;;11.60;90.40;11.60;100870.00;;;;5015309;27;87737;-62
2022/07/15 03:34:15;;;;;;;2.83;0.67;;;11.60;90.60;11.60;100871.00;;;;4995523;27;110498;-62
2022/07/15 03:36:40;;;;;;;1.50;0.50;;;11.60;90.80;11.60;100878.00;;;;5014346;27;109103;-62
2022/07/15 03:39:07;;;;;;;0.80;0.47;;;11.60;91.30;11.60;100879.00;;;;5015892;27;88140;-62
2022/07/15 03:41:34;;;;;;;0.57;0.50;;;11.60;91.40;11.60;100878.00;;;;5015334;27;88389;-62
2022/07/15 03:44:01;;;;;;;0.73;0.57;;;11.60;91.70;11.60;100885.00;;;;5014600;27;87614;-62
2022/07/15 03:46:27;;;;;;;0.50;0.50;;;11.60;92.10;11.60;100889.00;;;;5015403;27;87712;-61
2022/07/15 03:48:54;;;;;;;0.37;0.30;;;11.60;92.30;11.60;100894.00;;;;4999429;27;90664;-61
2022/07/15 03:51:19;;;;;;;1.90;0.50;;;11.60;92.40;11.70;100898.00;;;;5014993;27;117022;-61
2022/07/15 03:53:45;;;;;;;0.40;0.30;;;11.60;92.80;11.70;100898.00;;;;5014900;27;110432;-61
2022/07/15 03:56:12;;;;;;;0.20;0.20;;;11.60;92.80;11.70;100898.00;;;;5015207;27;108778;-62
2022/07/15 03:58:38;;;;;;;0.50;0.50;;;11.60;93.30;11.70;100912.00;;;;5014724;27;89704;-61
2022/07/15 04:01:04;;;;;;;2.10;0.50;;;11.70;93.30;11.80;100908.00;;;;5015834;27;89137;-61
2022/07/15 04:03:30;;;;;;;0.80;0.63;;;11.70;93.50;11.80;100903.00;;;;5015590;27;87660;-61
2022/07/15 04:05:56;;;;;;;0.87;0.63;;;11.70;93.60;11.90;100904.00;;;;5015583;27;87552;-61
2022/07/15 04:08:21;;;;;;;0.93;0.73;;;11.80;93.90;11.90;100915.00;;;;4995070;27;118581;-61
2022/07/15 04:10:47;;;;;;;0.40;0.40;;;11.90;94.20;12.00;100906.00;;;;5014082;27;116427;-62
2022/07/15 04:13:13;;;;;;;0.83;0.50;;;11.90;94.50;12.00;100917.00;;;;5015382;27;87579;-63
2022/07/15 04:15:39;;;;;;;1.67;0.50;;;12.00;94.80;12.10;100913.00;;;;5015775;27;87091;-61
2022/07/15 04:18:04;;;;;;;2.50;0.70;;;12.00;94.90;12.20;100907.00;;;;5013021;27;117899;-62
2022/07/15 04:20:30;;;;;;;2.00;0.83;;;12.10;95.00;12.30;100920.00;;;;5014323;27;116951;-62
2022/07/15 04:22:56;;;;;;;0.83;0.53;;;12.20;95.10;12.40;100920.00;;;;5013411;27;110485;-61
2022/07/15 04:25:22;;;;;;;0.70;0.47;;;12.30;95.20;12.40;100928.00;;;;5014322;27;105074;-62
2022/07/15 04:27:48;;;;;;;1.57;0.70;;;12.30;95.20;12.50;100931.00;;;;5014359;27;88657;-63
2022/07/15 04:30:15;;;;;;;0.40;0.40;;;12.40;95.50;12.60;100922.00;;;;5014837;27;88622;-62
2022/07/15 04:32:41;;;;;;;2.10;0.70;;;12.50;95.40;12.70;100925.00;;;;5014822;27;100220;-63
2022/07/15 04:35:08;;;;;;;3.00;1.17;;;12.60;95.50;12.80;100932.00;;;;5015545;27;87763;-62
2022/07/15 04:37:33;;;;;;;0.97;0.60;;;12.70;95.50;12.90;100936.00;;;;5014381;27;89920;-63
2022/07/15 04:39:59;;;;;;;0.67;0.57;;;12.70;95.50;13.00;100932.00;;;;5015288;27;102085;-61
2022/07/15 04:42:25;;;;;;;0.63;0.30;;;12.90;95.50;13.10;100935.00;;;;5013910;27;109866;-61
2022/07/15 04:44:51;;;;;;;1.60;0.77;;;13.00;95.50;13.20;100936.00;;;;5016035;27;87829;-63
2022/07/15 04:47:17;;;;;;;1.27;0.73;;;13.10;95.30;13.30;100947.00;;;;5012971;27;119688;-61
2022/07/15 04:52:30;;;;;;;0.33;0.33;;;13.30;95.00;13.60;100936.00;;;;5013401;27;87661;-63
2022/07/15 04:54:56;;;;;;;0.40;0.40;;;13.50;94.90;13.80;100949.00;;;;5014805;27;87660;-62
2022/07/15 04:57:22;;;;;;;0.37;0.30;;;13.60;94.70;13.90;100953.00;;;;5017288;27;88321;-62
2022/07/15 04:59:48;;;;;;;1.13;0.70;;;13.80;94.60;14.10;100953.00;;;;5016258;27;117338;-62
2022/07/15 05:02:14;;;;;;;0.93;0.70;;;13.90;94.30;14.20;100963.00;;;;5018112;27;87885;-61
2022/07/15 05:04:40;;;;;;;0.47;0.47;;;14.10;94.10;14.30;100963.00;;;;5017274;27;108762;-62
2022/07/15 05:07:06;;;;;;;0.50;0.50;;;14.20;93.90;14.40;100964.00;;;;5018318;27;87840;-62
2022/07/15 05:09:32;;;;;;;0.38;0.28;;;14.30;93.60;14.50;100968.00;;;;5018500;27;87784;-62
2022/07/15 05:11:58;;;;;;;1.05;0.40;;;14.40;93.40;14.50;100969.00;;;;5017180;27;88467;-62
2022/07/15 05:14:25;;;;;;;1.10;0.57;;;14.40;93.20;14.60;100972.00;;;;5018075;27;87613;-61
2022/07/15 05:16:51;;;;;;;0.65;0.65;;;14.50;93.10;14.60;100972.00;;;;5017290;27;88645;-63
2022/07/15 05:19:16;;;;;;;1.15;0.65;;;14.50;93.10;14.70;100970.00;;;;5017702;27;92912;-62
2022/07/15 05:21:42;;;;;;;0.60;0.60;;;14.60;92.90;14.80;100985.00;;;;5016285;27;110166;-63
2022/07/15 05:24:08;;;;;;;2.78;0.80;;;14.70;92.90;14.90;100979.00;;;;5004357;27;87667;-63
2022/07/15 05:26:34;;;;;;;0.80;0.80;;;14.80;92.80;15.00;100986.00;;;;4977994;28;117491;-62
2022/07/15 05:28:59;;;;;;;0.90;0.65;;;14.80;92.60;15.10;100991.00;;;;5009772;27;111438;-62
2022/07/15 05:31:25;;;;;;;0.43;0.40;;;14.90;92.50;15.20;100994.00;;;;5014831;27;111517;-62
2022/07/15 05:33:52;;;;;;;0.50;0.50;;;15.00;92.40;15.30;100995.00;;;;5017209;27;108421;-61
2022/07/15 05:36:18;;;;;;;0.32;0.22;;;15.10;92.30;15.40;100987.00;;;;5016731;27;89372;-62
2022/07/15 05:38:45;;;;;;;1.13;0.57;;;15.20;92.10;15.50;100991.00;;;;5016127;27;117950;-62
2022/07/15 05:41:11;;;;;;;0.47;0.45;;;15.30;91.90;15.50;100988.00;;;;5016747;27;110189;-62
2022/07/15 05:43:37;;;;;;;1.10;0.65;;;15.40;91.70;15.60;100997.00;;;;5016196;27;108727;-62
2022/07/15 05:46:04;;;;;;;1.48;0.85;;;15.50;91.50;15.70;100995.00;;;;5017681;27;88249;-62
2022/07/15 05:48:30;;;;;;;0.75;0.40;;;15.60;91.40;15.80;101006.00;;;;5017105;27;88544;-63
2022/07/15 05:50:56;;;;;;;0.85;0.40;;;15.70;91.30;15.90;101009.00;;;;5017577;27;87889;-63
2022/07/15 05:53:22;;;;;;;2.13;0.60;;;15.80;91.00;16.10;101011.00;;;;5017598;27;97728;-63
2022/07/15 05:55:47;;;;;;;0.95;0.50;;;15.90;90.90;16.10;101013.00;;;;5017154;27;88695;-62
2022/07/15 05:58:13;;;;;;;1.02;0.93;;;16.00;90.60;16.20;101015.00;;;;5016147;27;117434;-62
2022/07/15 06:00:39;;;;;;;1.17;0.50;;;16.00;90.50;16.20;101012.00;;;;5014947;27;109408;-63
2022/07/15 06:03:05;;;;;;;1.05;0.60;;;16.10;90.40;16.30;101013.00;;;;4998582;27;88052;-61
2022/07/15 06:05:31;;;;;;;0.60;0.60;;;16.10;90.20;16.40;101028.00;;;;5017155;27;87905;-63
2022/07/15 06:07:57;;;;;;;0.40;0.40;;;16.20;90.10;16.50;101021.00;;;;5015458;27;88695;-62
2022/07/15 06:10:23;;;;;;;0.65;0.50;;;16.30;89.80;16.60;101026.00;;;;5017167;27;87746;-63
2022/07/15 06:12:49;;;;;;;1.23;0.50;;;16.40;89.30;16.70;101009.00;;;;5015826;27;101863;-63
2022/07/15 06:15:15;;;;;;;1.65;0.68;;;16.50;89.10;16.80;101014.00;;;;5016235;27;111073;-62
2022/07/15 06:17:41;;;;;;;1.20;0.85;;;16.60;88.50;16.80;101028.00;;;;5017105;27;87640;-62
2022/07/15 06:20:07;;;;;;;0.98;0.90;;;16.70;87.80;16.90;101025.00;;;;5017655;27;87791;-63
2022/07/15 06:22:33;;;;;;;1.08;0.63;;;16.70;87.30;16.90;101015.00;;;;5015742;27;98126;-62
2022/07/15 06:24:59;;;;;;;1.33;0.73;;;16.80;86.70;17.00;101018.00;;;;5016382;27;89991;-62
2022/07/15 06:27:25;;;;;;;1.00;0.65;;;16.80;86.20;17.00;101019.00;;;;5015829;27;89485;-61
2022/07/15 06:29:52;;;;;;;1.77;0.60;;;16.80;85.70;17.10;101026.00;;;;5017042;27;96084;-62
2022/07/15 06:32:20;;;;;;;1.00;0.57;;;16.90;85.50;17.10;101022.00;;;;5016327;27;87928;-62
2022/07/15 06:34:46;;;;;;;1.23;0.82;;;17.00;84.80;17.20;101014.00;;;;5016338;27;102223;-62
2022/07/15 06:37:11;;;;;;;0.28;0.28;;;17.10;84.60;17.40;101029.00;;;;5016386;27;105491;-62
2022/07/15 06:39:37;;;;;;;1.58;0.57;;;17.20;83.90;17.50;101024.00;;;;5015935;27;93780;-62
2022/07/15 06:42:03;;;;;;;0.60;0.45;;;17.50;83.60;17.60;101021.00;;;;5016574;27;108342;-63
2022/07/15 06:44:29;;;;;;;1.30;0.65;;;17.40;83.10;17.70;101044.00;;;;4996591;27;119336;-62
2022/07/15 06:46:55;;;;;;;0.50;0.50;;;17.50;82.20;17.80;101036.00;;;;5014852;27;116392;-61
2022/07/15 06:49:22;;;;;;;1.75;0.50;;;17.60;80.80;17.80;101030.00;;;;5015979;27;94589;-61
2022/07/15 06:51:48;;;;;;;0.50;0.50;;;17.60;80.00;17.90;101038.00;;;;5016990;27;87733;-62
2022/07/15 06:54:14;;;;;;;1.40;0.63;;;17.70;80.10;18.00;101040.00;;;;5016998;27;87742;-62
2022/07/15 06:56:40;;;;;;;3.00;0.50;;;17.80;80.00;18.20;101034.00;;;;5016127;27;101255;-63
2022/07/15 06:59:06;;;;;;;2.17;0.50;;;18.00;79.70;18.40;101039.00;;;;5018208;27;88038;-62
2022/07/15 07:01:33;;;;;;;0.90;0.57;;;18.10;79.00;18.50;101044.00;;;;5015425;27;108739;-63
2022/07/15 07:03:58;;;;;;;7.70;1.13;;;18.30;77.90;18.60;101037.00;;;;5016305;27;88218;-63
2022/07/15 07:06:26;;;;;;;1.23;0.52;;;18.40;76.70;18.70;101034.00;;;;5016098;27;103239;-63
2022/07/15 07:08:52;;;;;;;1.65;0.38;;;18.50;75.70;18.80;101048.00;;;;5016661;27;87771;-63
2022/07/15 07:11:19;;;;;;;2.63;0.70;;;18.50;74.80;18.80;101044.00;;;;5016829;27;87805;-63
2022/07/15 07:13:46;;;;;;;0.45;0.45;;;18.60;74.40;18.90;101037.00;;;;5015205;27;89574;-63
2022/07/15 07:16:12;;;;;;;1.10;0.55;;;18.70;74.40;19.10;101043.00;;;;5016408;27;89586;-63
2022/07/15 07:18:38;;;;;;;0.40;0.40;;;18.80;74.20;19.20;101038.00;;;;5015624;27;90498;-62
2022/07/15 07:21:04;;;;;;;0.85;0.85;;;19.00;72.70;19.20;101040.00;;;;5015811;27;108933;-63
2022/07/15 07:23:30;;;;;;;2.15;0.50;;;19.10;71.50;19.20;101046.00;;;;5014499;27;93366;-62
2022/07/15 07:25:57;;;;;;;0.98;0.70;;;19.10;71.10;19.30;101036.00;;;;5015499;27;87883;-63
2022/07/15 07:28:23;;;;;;;2.35;0.50;;;19.10;70.40;19.50;101044.00;;;;5015905;27;88069;-63
2022/07/15 07:30:50;;;;;;;0.60;0.32;;;19.20;70.40;19.60;101042.00;;;;5016439;27;86859;-63
2022/07/15 07:33:16;;;;;;;0.65;0.30;;;19.40;70.10;19.70;101033.00;;;;5015227;27;88036;-62
2022/07/15 07:35:43;;;;;;;0.57;0.57;;;19.50;69.00;19.70;101041.00;;;;5014088;27;118136;-63
2022/07/15 07:38:09;;;;;;;2.55;0.28;;;19.50;66.60;19.80;101046.00;;;;5014938;27;88578;-63
2022/07/15 07:40:35;;;;;;;2.72;0.28;;;19.60;67.10;20.00;101043.00;;;;5016874;27;87497;-63
2022/07/15 07:43:01;;;;;;;3.78;0.80;;;19.70;67.10;20.20;101047.00;;;;5014085;27;117704;-63
2022/07/15 07:45:28;;;;;;;2.58;0.73;;;19.90;66.30;20.30;101027.00;;;;5014544;27;116621;-63
2022/07/15 07:47:55;;;;;;;0.75;0.52;;;20.10;64.90;20.30;101045.00;;;;5015628;27;87823;-63
2022/07/15 07:50:21;;;;;;;0.52;0.52;;;20.20;63.10;20.40;101047.00;;;;5016484;27;87698;-63
2022/07/15 07:52:47;;;;;;;0.30;0.30;;;20.10;63.40;20.60;101035.00;;;;5014350;27;117704;-62
2022/07/15 07:55:14;;;;;;;0.30;0.30;;;20.40;64.00;20.80;101043.00;;;;5015455;27;89004;-62
2022/07/15 07:57:53;;;;;;;0.30;0.30;;;20.50;63.50;20.90;101043.00;;;;5015469;27;87741;-63
2022/07/15 08:00:21;;;;;;;0.17;0.17;;;20.70;62.30;20.90;101034.00;;;;4996738;27;87976;-63
2022/07/15 08:02:47;;;;;;;0.35;0.20;;;20.70;60.50;20.70;101035.00;;;;5014116;27;108480;-63
2022/07/15 08:05:14;;;;;;;1.33;0.50;;;20.60;59.70;20.50;101033.00;;;;5015220;27;89513;-63
2022/07/15 08:07:41;;;;;;;1.52;0.60;;;20.40;59.40;20.50;101037.00;;;;5014807;27;95827;-63
2022/07/15 08:10:08;;;;;;;0.50;0.50;;;20.30;59.30;20.50;101038.00;;;;5015447;27;87789;-63
2022/07/15 08:12:36;;;;;;;0.60;0.45;;;20.40;58.80;20.50;101034.00;;;;5013985;27;105572;-63
2022/07/15 08:15:02;;;;;;;1.85;0.68;;;20.30;58.20;20.60;101031.00;;;;5014938;27;87811;-64
2022/07/15 08:17:28;;;;;;;2.55;0.40;;;20.40;57.60;20.60;101033.00;;;;5014785;27;90816;-63
2022/07/15 08:19:54;;;;;;;0.30;0.30;;;20.40;56.60;20.50;101025.00;;;;5015343;27;87166;-63
2022/07/15 08:22:20;;;;;;;2.20;0.43;;;20.70;56.60;20.50;101021.00;;;;5014548;27;87844;-63
2022/07/15 08:24:45;;;;;;;0.47;0.30;;;20.30;56.60;20.70;101028.00;;;;5013394;27;98538;-64
2022/07/15 08:27:11;;;;;;;1.48;0.70;;;20.60;56.40;20.80;101018.00;;;;5013956;27;110280;-63
2022/07/15 08:29:38;;;;;;;0.38;0.22;;;20.60;56.30;20.80;101022.00;;;;5014734;27;92242;-64
2022/07/15 08:32:04;;;;;;;0.20;0.20;;;20.60;54.90;20.80;101033.00;;;;5017068;27;89271;-63
2022/07/15 08:34:30;;;;;;;0.35;0.35;;;20.60;54.70;20.70;101026.00;;;;5018565;27;88504;-63
2022/07/15 08:36:56;;;;;;;0.95;0.38;;;20.50;54.40;20.50;101040.00;;;;5018022;27;97402;-63
2022/07/15 08:39:21;;;;;;;0.52;0.50;;;20.40;54.60;20.40;101033.00;;;;5019274;27;87681;-63
2022/07/15 08:41:48;;;;;;;0.17;0.17;;;20.30;54.70;20.40;101030.00;;;;5017288;27;116065;-64
2022/07/15 08:44:14;;;;;;;0.13;0.13;;;20.20;54.90;20.50;101025.00;;;;5018090;27;87982;-63
2022/07/15 08:46:45;;;;;;;3.92;0.93;;;20.30;54.90;20.50;101031.00;;;;5017702;27;108565;-63
2022/07/15 08:49:15;;;;;;;1.75;0.47;;;20.30;54.00;20.60;101034.00;;;;5018357;27;87735;-64
2022/07/15 08:51:46;;;;;;;0.65;0.47;;;20.40;54.50;20.70;101027.00;;;;5017989;27;89470;-63
2022/07/15 08:54:14;;;;;;;0.73;0.55;;;20.40;54.30;20.80;101034.00;;;;5017939;27;88750;-63
2022/07/15 08:56:39;;;;;;;0.45;0.45;;;20.50;54.40;20.80;101040.00;;;;5017648;27;87659;-63
2022/07/15 08:59:07;;;;;;;1.48;0.40;;;20.60;54.20;20.80;101037.00;;;;5019051;27;87486;-63
2022/07/15 09:01:39;;;;;;;0.25;0.25;;;20.60;53.30;20.80;101028.00;;;;5017414;27;100288;-64
2022/07/15 09:04:05;;;;;;;0.73;0.40;;;20.60;52.90;20.80;101034.00;;;;5014886;27;101517;-63
2022/07/15 09:06:40;;;;;;;1.23;0.32;;;20.60;53.40;20.80;101032.00;;;;5016724;27;109515;-62
2022/07/15 09:09:34;;;;;;;0.65;0.40;;;20.60;53.20;20.70;101039.00;;;;4999434;27;86934;-63
2022/07/15 09:12:03;;;;;;;1.48;0.65;;;20.60;53.10;20.70;101044.00;;;;5017723;27;88736;-63
2022/07/15 09:14:30;;;;;;;0.15;0.15;;;20.60;52.90;20.60;101044.00;;;;5003479;27;89512;-62
2022/07/15 09:17:11;;;;;;;0.20;0.20;;;20.40;52.60;20.50;101033.00;;;;5016790;27;88827;-63
2022/07/15 09:20:07;;;;;;;1.52;0.40;;;20.40;52.50;20.50;101041.00;;;;5017763;27;100371;-63
2022/07/15 09:22:52;;;;;;;0.55;0.38;;;20.30;52.80;20.50;101036.00;;;;5017615;27;88206;-63
2022/07/15 09:25:20;;;;;;;0.20;0.20;;;20.30;52.80;20.50;101042.00;;;;5008826;27;88614;-62
2022/07/15 09:27:46;;;;;;;0.22;0.22;;;20.30;52.70;20.50;101044.00;;;;5017063;27;87892;-63
2022/07/15 09:36:01;;;;;;;0.82;0.32;;;20.30;52.90;20.70;101041.00;;;;5015217;27;86830;-63
2022/07/15 09:38:46;;;;;;;0.77;0.20;;;20.40;53.10;20.90;101038.00;;;;5017779;27;87566;-63
2022/07/15 09:41:33;;;;;;;0.20;0.20;;;20.60;52.60;21.10;101046.00;;;;5016439;27;87713;-63
2022/07/15 09:44:05;;;;;;;0.40;0.40;;;20.70;52.60;21.30;101046.00;;;;5014102;27;88586;-63
2022/07/15 09:46:50;;;;;;;1.05;0.52;;;20.90;52.30;21.40;101036.00;;;;5017768;27;89589;-63
2022/07/15 09:49:38;;;;;;;0.80;0.52;;;21.20;52.20;21.50;101042.00;;;;5018150;27;87771;-63
2022/07/15 09:52:07;;;;;;;0.75;0.40;;;21.20;51.10;21.60;101045.00;;;;5017283;27;87829;-64
2022/07/15 09:54:42;;;;;;;0.43;0.25;;;21.20;50.80;21.60;101041.00;;;;5018027;27;87755;-63
2022/07/15 09:57:14;;;;;;;1.05;0.57;;;21.30;50.30;21.80;101040.00;;;;5016422;27;88720;-63
2022/07/15 09:59:40;;;;;;;0.32;0.20;;;21.50;50.60;22.00;101035.00;;;;5017456;27;87883;-64
2022/07/15 10:02:05;;;;;;;0.70;0.30;;;21.70;49.40;22.20;101039.00;;;;4999011;27;86926;-64
2022/07/15 10:04:31;;;;;;;0.17;0.17;;;21.90;49.30;22.40;101039.00;;;;5016555;27;117739;-64
2022/07/15 10:07:02;;;;;;;1.65;0.43;;;22.00;48.70;22.40;101033.00;;;;5017127;27;88119;-64
2022/07/15 10:09:31;;;;;;;1.30;0.70;;;22.10;48.10;22.20;101040.00;;;;5016607;27;88680;-64
2022/07/15 10:12:04;;;;;;;0.10;0.10;;;22.00;47.50;22.00;101045.00;;;;5017085;27;90568;-63
2022/07/15 10:15:20;;;;;;;0.45;0.10;;;21.90;47.70;21.80;101055.00;;;;4997758;27;87818;-64
2022/07/15 10:18:11;;;;;;;0.68;0.47;;;21.70;48.40;21.70;101050.00;;;;5007670;27;87965;-63
2022/07/15 10:21:07;;;;;;;1.55;0.55;;;21.60;48.70;21.60;101065.00;;;;5016269;27;103679;-63
2022/07/15 10:24:15;;;;;;;0.40;0.40;;;21.50;48.70;21.40;101059.00;;;;5014747;27;88056;-64
2022/07/15 10:27:18;;;;;;;0.93;0.38;;;21.30;48.50;21.30;101071.00;;;;5017400;27;88149;-64
2022/07/15 10:29:45;;;;;;;0.57;0.55;;;21.10;49.10;21.50;101058.00;;;;5017035;27;87772;-64
2022/07/15 10:32:10;;;;;;;1.13;0.75;;;21.20;49.30;21.90;101054.00;;;;5015339;27;109538;-64
2022/07/15 10:34:38;;;;;;;0.93;0.38;;;21.40;49.50;22.20;101052.00;;;;5016058;27;107721;-64
2022/07/15 10:37:10;;;;;;;1.35;0.43;;;21.80;48.80;22.60;101040.00;;;;5015141;27;90047;-63
2022/07/15 10:40:06;;;;;;;0.47;0.35;;;22.20;48.00;22.90;101046.00;;;;5016652;27;89311;-64
2022/07/15 10:43:01;;;;;;;0.20;0.20;;;22.50;46.40;23.00;101037.00;;;;4995363;27;87680;-63
2022/07/15 10:45:27;;;;;;;1.35;0.40;;;22.70;46.00;23.00;101050.00;;;;5017542;27;87904;-64
2022/07/15 10:48:25;;;;;;;0.73;0.47;;;22.60;46.80;22.90;101047.00;;;;5015891;27;98605;-63
2022/07/15 10:50:50;;;;;;;0.45;0.30;;;22.70;45.70;22.70;101049.00;;;;5016470;27;88266;-63
2022/07/15 10:53:20;;;;;;;0.35;0.20;;;22.50;46.00;22.50;101055.00;;;;5015969;27;92020;-63
2022/07/15 10:55:46;;;;;;;0.38;0.38;;;22.30;46.40;22.40;101062.00;;;;5017286;27;86750;-63
2022/07/15 10:58:16;;;;;;;2.13;0.28;;;22.20;46.90;22.40;101054.00;;;;4996763;27;105070;-63